Česky Dansk Deutsch English Español Suomi Français Magyar Italiano Nederlands norsk Polski Português svenska Türkçe

 

Het Weer

Manzini / Matsapa Airport (Swaziland)

15:00, 21 augustus 2016 (GMT)

NWNNE
WE
SWSSE
Home            
Manzini / Matsapa Airport Nelspruit Carolina Ermelo Maputo / Mavalane Vryheid Newcastle Ulundi Standerton Witbank Hoedspruit Richard Bay Ladysmith Xai Xai Frankfort Phalaborwa Springs Greytown Johannesburg International Airport Pretoria Irene Tzaneen Waterkloof (SAAF) Wonderboom / Pretoria

Om een weerknop op uw website of weblog te plaatsen, copieer onderstaande code en plak die in uw pagina. In het eerste vakje staat HTML-code, in het tweede vakje UBB-code.


Add to Google

Details

Visibility:Greater than 10000 m, 10 km, 32800 ft, 6.2 miles
Clouds:CAVOC
Temperature:24°C, 75°F
Gefühlte Temperatur:25°C, 77°F
Dew-point:15°C, 59°F
Atmospheric pressure:1014 hPa, 760.6 mmHg, 29.94 inHg, 1.001 atm
Relative humidity:57.2 %
METAR:FDMS 211500Z 00000KT CAVOK 24/15 Q1014 NOSIG

Snelkoppelingen

Actuele weersinformatie van de hele wereld. Voeg locaties toe met het plus (+) symbool. Deze snelkoppelingen kunnen worden toegevoegd aan Google.

Lid van de Technetium groep

website free tracking
StatCounter NetStat W3C Validator

16-12-2018 09:19:29
astro.technetium.be money.technetium.be phote.technetium.be tafeltennistafel.technetium.be www.ligfiets.net